Time;durP1;ratioP1;P1;durP2;ratioP2;P2;SDS_P1;SDS_P2;PMS_P1;PMS_P2;Temp;Humidity;BMP_temperature;BMP_pressure;BME280_temperature;BME280_humidity;BME280_pressure;Samples;Min_cycle;Max_cycle;Signal;HPM_P1;HPM_P2
2022/11/05 00:10:00;;;;;;;11.27;3.47;;;;;;;5.45;100.00;101402.59;6184354;23;20052;-84
2022/11/05 00:17:53;;;;;;;7.27;3.73;;;;;;;5.08;100.00;101404.94;6185343;23;20303;-83
2022/11/05 00:20:18;;;;;;;9.95;3.58;;;;;;;4.95;100.00;101414.53;6187464;23;20012;-83
2022/11/05 00:25:29;;;;;;;9.27;3.90;;;;;;;4.83;100.00;101429.47;6188362;23;20530;-83
2022/11/05 00:28:00;;;;;;;7.57;3.60;;;;;;;4.69;100.00;101426.81;6192283;23;20264;-84
2022/11/05 00:30:25;;;;;;;10.63;3.92;;;;;;;4.67;100.00;101435.97;6185585;23;20067;-84
2022/11/05 00:32:51;;;;;;;8.98;3.80;;;;;;;4.57;100.00;101439.03;6192470;23;20005;-84
2022/11/05 00:35:19;;;;;;;7.45;3.78;;;;;;;4.43;100.00;101429.41;6185108;23;20001;-84
2022/11/05 00:37:45;;;;;;;9.43;3.85;;;;;;;4.42;100.00;101441.88;6184656;23;20036;-84
2022/11/05 00:40:11;;;;;;;9.37;4.03;;;;;;;4.40;100.00;101444.72;6175452;23;20221;-83
2022/11/05 00:45:22;;;;;;;7.05;4.15;;;;;;;4.18;100.00;101435.31;6185195;23;20336;-84
2022/11/05 00:50:33;;;;;;;7.20;4.13;;;;;;;4.21;100.00;101442.84;6184069;23;20019;-84
2022/11/05 00:52:59;;;;;;;5.35;4.28;;;;;;;4.28;100.00;101458.78;6184130;23;20001;-83
2022/11/05 00:55:33;;;;;;;12.25;4.63;;;;;;;4.11;100.00;101440.56;6185347;23;19997;-84
2022/11/05 00:58:01;;;;;;;8.83;4.63;;;;;;;4.21;100.00;101464.06;6184684;23;20325;-84
2022/11/05 01:00:28;;;;;;;15.63;4.97;;;;;;;4.23;100.00;101464.69;6183834;23;20258;-84
2022/11/05 01:03:02;;;;;;;7.20;5.00;;;;;;;4.19;100.00;101460.81;6184373;23;20080;-84
2022/11/05 01:05:28;;;;;;;9.88;4.38;;;;;;;4.11;100.00;101466.28;6184775;23;19997;-84
2022/11/05 01:07:54;;;;;;;11.60;5.07;;;;;;;4.02;100.00;101463.78;6198075;23;19989;-84
2022/11/05 01:10:20;;;;;;;9.38;5.07;;;;;;;3.97;100.00;101466.25;6184550;23;20040;-84
2022/11/05 01:12:45;;;;;;;10.73;4.63;;;;;;;3.90;100.00;101468.88;6157686;23;20080;-84
2022/11/05 01:15:11;;;;;;;9.60;4.72;;;;;;;3.89;100.00;101467.22;6183606;23;20136;-84
2022/11/05 01:17:36;;;;;;;6.47;4.70;;;;;;;3.90;100.00;101460.91;6184012;23;20011;-84
2022/11/05 01:20:02;;;;;;;9.27;4.83;;;;;;;3.88;100.00;101475.38;6183173;23;20008;-84
2022/11/05 01:22:27;;;;;;;9.60;4.65;;;;;;;3.86;100.00;101482.69;6184522;23;20001;-84
2022/11/05 01:24:53;;;;;;;12.03;4.73;;;;;;;3.70;100.00;101470.59;6190315;23;20000;-84
2022/11/05 01:27:18;;;;;;;8.83;4.40;;;;;;;3.76;100.00;101494.50;6202261;23;20005;-84
2022/11/05 01:29:43;;;;;;;8.90;4.43;;;;;;;3.70;100.00;101495.25;6185004;23;20001;-84
2022/11/05 01:32:09;;;;;;;10.93;4.40;;;;;;;3.64;100.00;101477.50;6185121;23;20085;-84
2022/11/05 01:34:34;;;;;;;11.90;5.00;;;;;;;3.71;100.00;101499.53;6184218;23;20005;-84
2022/11/05 01:36:59;;;;;;;9.57;4.70;;;;;;;3.71;100.00;101502.19;6183988;23;20237;-83
2022/11/05 01:39:25;;;;;;;13.70;5.37;;;;;;;3.66;100.00;101486.06;6184015;23;20081;-84
2022/11/05 01:41:50;;;;;;;7.80;5.10;;;;;;;3.76;100.00;101497.13;6183263;23;20356;-84
2022/11/05 01:44:54;;;;;;;8.00;5.23;;;;;;;3.84;100.00;101503.28;6193940;23;19985;-84
2022/11/05 01:47:33;;;;;;;13.90;5.60;;;;;;;3.90;100.00;101506.00;6184110;23;20005;-84
2022/11/05 01:50:05;;;;;;;12.90;5.55;;;;;;;3.96;100.00;101506.19;6183647;23;20012;-83
2022/11/05 01:52:34;;;;;;;11.00;5.22;;;;;;;3.90;100.00;101499.84;6183238;23;20005;-84
2022/11/05 01:55:00;;;;;;;8.35;4.75;;;;;;;3.81;100.00;101493.91;6183717;23;20009;-84
2022/11/05 01:57:27;;;;;;;8.27;4.93;;;;;;;3.73;100.00;101496.72;6183372;23;20012;-84
2022/11/05 01:59:57;;;;;;;8.90;4.88;;;;;;;3.62;100.00;101488.28;6183027;23;20060;-84
2022/11/05 02:02:24;;;;;;;9.35;4.47;;;;;;;3.66;100.00;101493.19;6184305;23;20005;-85
2022/11/05 02:05:02;;;;;;;16.15;4.88;;;;;;;3.61;100.00;101486.66;6183055;23;20080;-84
2022/11/05 02:07:29;;;;;;;11.60;4.75;;;;;;;3.55;100.00;101481.31;6183626;23;20016;-84
2022/11/05 02:10:12;;;;;;;8.60;4.57;;;;;;;3.38;100.00;101473.66;6182732;23;20009;-84
2022/11/05 02:12:42;;;;;;;11.50;5.13;;;;;;;3.44;100.00;101482.66;6183564;23;20012;-84
2022/11/05 02:15:49;;;;;;;12.80;4.65;;;;;;;3.43;100.00;101481.84;6182837;23;20020;-84
2022/11/05 02:18:23;;;;;;;10.27;4.72;;;;;;;3.36;100.00;101465.09;6182766;23;20063;-84
2022/11/05 02:21:11;;;;;;;12.87;5.37;;;;;;;3.51;100.00;101486.19;6182917;23;20005;-84
2022/11/05 02:24:09;;;;;;;9.93;4.97;;;;;;;3.46;100.00;101492.06;6183408;23;20239;-84
2022/11/05 02:26:43;;;;;;;9.85;5.05;;;;;;;3.45;100.00;101489.59;6163140;23;20005;-84
2022/11/05 02:29:36;;;;;;;9.75;5.03;;;;;;;3.43;100.00;101487.16;6182867;23;20391;-84
2022/11/05 02:32:13;;;;;;;16.45;5.53;;;;;;;3.39;100.00;101480.59;6183144;23;20005;-84
2022/11/05 02:34:55;;;;;;;18.50;5.47;;;;;;;3.34;100.00;101477.72;6183143;23;20005;-84
2022/11/05 02:37:29;;;;;;;12.55;5.60;;;;;;;3.28;100.00;101489.09;6182983;23;20001;-84
2022/11/05 02:40:16;;;;;;;12.52;5.75;;;;;;;3.33;100.00;101478.72;6182588;23;20333;-84
2022/11/05 02:43:13;;;;;;;19.45;6.40;;;;;;;3.31;100.00;101472.78;6183431;23;20008;-84
2022/11/05 02:46:18;;;;;;;13.93;6.03;;;;;;;3.29;100.00;101480.94;6183166;23;20488;-84
2022/11/05 02:49:02;;;;;;;10.67;5.90;;;;;;;3.22;100.00;101479.25;6183169;23;20701;-84
2022/11/05 02:51:55;;;;;;;12.52;6.35;;;;;;;3.09;100.00;101469.38;6182416;23;20055;-84
2022/11/05 02:54:46;;;;;;;12.70;5.88;;;;;;;3.16;100.00;101483.50;6183294;23;20001;-84
2022/11/05 02:57:11;;;;;;;14.93;6.78;;;;;;;3.15;100.00;101487.97;6183064;23;20096;-84
2022/11/05 02:59:36;;;;;;;12.87;6.90;;;;;;;3.10;100.00;101476.31;6182819;23;20071;-84
2022/11/05 03:02:04;;;;;;;14.83;6.73;;;;;;;3.03;100.00;101466.47;6182997;23;20081;-84
2022/11/05 03:04:31;;;;;;;15.82;7.93;;;;;;;3.09;100.00;101472.84;6183220;23;20020;-84
2022/11/05 03:07:17;;;;;;;19.63;7.25;;;;;;;3.05;100.00;101479.53;6182709;23;20001;-84
2022/11/05 03:10:08;;;;;;;17.00;7.70;;;;;;;3.09;100.00;101472.03;6182360;23;20059;-84
2022/11/05 03:12:41;;;;;;;19.88;8.32;;;;;;;3.17;100.00;101472.69;6182806;23;20495;-84
2022/11/05 03:15:33;;;;;;;21.27;8.68;;;;;;;3.17;100.00;101472.69;6182688;23;20016;-84
2022/11/05 03:18:07;;;;;;;23.80;9.37;;;;;;;3.18;100.00;101466.41;6182344;23;20005;-84
2022/11/05 03:20:52;;;;;;;17.60;9.57;;;;;;;3.25;100.00;101478.88;6182506;23;20256;-84
2022/11/05 03:23:35;;;;;;;21.20;9.02;;;;;;;3.14;100.00;101466.97;6181150;23;20009;-84
2022/11/05 03:26:11;;;;;;;22.33;9.60;;;;;;;3.16;100.00;101480.84;6181641;23;20008;-84
2022/11/05 03:28:41;;;;;;;18.95;9.73;;;;;;;3.16;100.00;101475.56;6181250;23;20373;-84
2022/11/05 03:31:12;;;;;;;20.38;9.75;;;;;;;3.14;100.00;101467.78;6181674;23;20425;-84
2022/11/05 03:33:40;;;;;;;19.88;9.70;;;;;;;3.12;100.00;101483.03;6183024;23;20001;-84
2022/11/05 03:36:12;;;;;;;30.33;10.10;;;;;;;3.11;100.00;101475.31;6182924;23;20092;-84
2022/11/05 03:38:43;;;;;;;20.48;9.80;;;;;;;3.06;100.00;101475.06;6182963;23;20005;-84
2022/11/05 03:41:14;;;;;;;19.15;8.90;;;;;;;3.06;100.00;101481.19;6182138;23;20032;-84
2022/11/05 03:43:46;;;;;;;24.20;10.43;;;;;;;3.09;100.00;101485.25;6183103;23;20027;-84
2022/11/05 03:46:19;;;;;;;21.07;10.87;;;;;;;3.14;100.00;101488.97;6182474;23;20237;-84
2022/11/05 03:48:47;;;;;;;31.50;11.00;;;;;;;3.14;100.00;101488.97;6186880;23;20067;-84
2022/11/05 03:51:13;;;;;;;24.00;11.18;;;;;;;3.15;100.00;101485.31;6187746;23;20009;-84
2022/11/05 03:53:47;;;;;;;24.97;11.43;;;;;;;3.07;100.00;101479.34;6187960;23;20005;-84
2022/11/05 03:56:25;;;;;;;30.05;11.45;;;;;;;3.12;100.00;101491.00;6189674;23;20035;-84
2022/11/05 03:58:52;;;;;;;29.27;11.45;;;;;;;3.08;100.00;101489.75;6184839;23;20676;-84
2022/11/05 04:01:17;;;;;;;24.05;11.10;;;;;;;2.92;100.00;101479.44;6182201;23;20009;-84
2022/11/05 04:03:42;;;;;;;23.23;11.97;;;;;;;2.99;100.00;101483.78;6182617;23;20043;-84
2022/11/05 04:14:20;;;;;;;26.60;12.88;;;;;;;2.98;100.00;101484.78;6182508;23;20452;-84
2022/11/05 04:24:58;;;;;;;30.57;12.47;;;;;;;2.80;100.00;101503.75;6182367;23;20167;-82
2022/11/05 04:27:23;;;;;;;23.97;11.87;;;;;;;2.77;100.00;101504.13;6182654;23;20276;-82
2022/11/05 04:32:32;;;;;;;23.85;11.65;;;;;;;2.68;100.00;101500.78;6184328;23;20020;-83
2022/11/05 04:34:57;;;;;;;20.27;11.83;;;;;;;2.69;100.00;101497.13;6184614;23;20009;-82
2022/11/05 04:37:23;;;;;;;28.10;12.93;;;;;;;2.76;100.00;101507.78;6183680;23;20506;-84
2022/11/05 04:39:48;;;;;;;30.90;13.23;;;;;;;2.71;100.00;101503.06;6183871;23;20443;-83
2022/11/05 04:42:13;;;;;;;30.67;14.37;;;;;;;2.70;100.00;101495.31;6184631;23;20031;-82
2022/11/05 04:44:39;;;;;;;31.10;14.15;;;;;;;2.80;100.00;101503.75;6184564;23;20024;-82
2022/11/05 04:47:04;;;;;;;31.40;14.30;;;;;;;2.83;100.00;101508.69;6184062;23;20063;-83
2022/11/05 04:49:29;;;;;;;35.50;14.33;;;;;;;2.80;100.00;101518.84;6184080;23;20055;-83
2022/11/05 04:51:54;;;;;;;32.07;14.70;;;;;;;2.80;100.00;101514.34;6183525;23;20100;-82
2022/11/05 04:54:20;;;;;;;28.83;13.73;;;;;;;2.78;100.00;101515.56;6183997;23;20095;-82
2022/11/05 04:56:45;;;;;;;30.87;14.43;;;;;;;2.77;100.00;101520.00;6184472;23;20504;-82
2022/11/05 04:59:10;;;;;;;30.07;14.77;;;;;;;2.68;100.00;101506.06;6183733;23;20089;-82
2022/11/05 05:01:35;;;;;;;33.07;13.87;;;;;;;2.76;100.00;101520.22;6183724;23;20016;-82
2022/11/05 05:04:01;;;;;;;30.13;13.95;;;;;;;2.73;100.00;101529.34;6184092;23;20072;-82
2022/11/05 05:06:26;;;;;;;32.17;14.07;;;;;;;2.58;100.00;101501.09;6184199;23;20008;-83
2022/11/05 05:08:51;;;;;;;31.43;13.43;;;;;;;2.77;100.00;101527.94;6184188;23;20008;-82
2022/11/05 05:11:19;;;;;;;31.40;14.73;;;;;;;2.86;100.00;101537.41;6183105;23;20470;-82
2022/11/05 05:13:45;;;;;;;31.60;14.82;;;;;;;2.80;100.00;101524.13;6184147;23;20005;-82
2022/11/05 05:16:19;;;;;;;32.87;14.57;;;;;;;2.82;100.00;101535.34;6183195;23;20009;-82
2022/11/05 05:18:44;;;;;;;32.97;14.98;;;;;;;2.78;100.00;101534.88;6183712;23;20032;-82
2022/11/05 05:23:53;;;;;;;31.23;14.67;;;;;;;2.83;100.00;101543.09;6184012;23;20507;-82
2022/11/05 05:26:18;;;;;;;31.77;14.45;;;;;;;2.77;100.00;101529.78;6184190;23;20012;-82
2022/11/05 05:28:44;;;;;;;40.67;15.30;;;;;;;2.80;100.00;101540.00;6183556;23;20036;-83
2022/11/05 05:31:09;;;;;;;30.33;14.77;;;;;;;2.78;100.00;101548.13;6182957;23;20020;-83
2022/11/05 05:33:34;;;;;;;31.33;14.03;;;;;;;2.72;100.00;101543.59;6182808;23;19997;-82
2022/11/05 05:36:01;;;;;;;32.93;14.63;;;;;;;2.64;100.00;101536.59;6183574;23;20032;-82
2022/11/05 05:38:28;;;;;;;33.53;14.48;;;;;;;2.56;100.00;101542.78;6183469;23;20398;-82
2022/11/05 05:40:59;;;;;;;38.10;14.52;;;;;;;2.58;100.00;101548.72;6156707;23;20048;-82
2022/11/05 05:43:31;;;;;;;30.75;15.05;;;;;;;2.35;100.00;101522.41;6183622;23;20008;-82
2022/11/05 05:46:00;;;;;;;39.63;15.07;;;;;;;2.49;100.00;101552.50;6183528;23;20096;-82
2022/11/05 05:48:25;;;;;;;31.35;14.15;;;;;;;2.50;100.00;101550.66;6183454;23;20486;-82
2022/11/05 05:50:50;;;;;;;31.23;14.80;;;;;;;2.48;100.00;101552.66;6183167;23;20036;-82
2022/11/05 05:53:16;;;;;;;33.33;14.67;;;;;;;2.42;100.00;101538.38;6183775;23;20136;-82
2022/11/05 05:55:41;;;;;;;33.33;14.80;;;;;;;2.53;100.00;101551.13;6183393;23;20410;-82
2022/11/05 05:58:06;;;;;;;27.00;14.67;;;;;;;2.51;100.00;101554.94;6183422;23;20003;-82
2022/11/05 06:00:31;;;;;;;36.20;15.33;;;;;;;2.44;100.00;101546.94;6183078;23;20001;-82
2022/11/05 06:02:57;;;;;;;37.20;14.70;;;;;;;2.35;100.00;101538.28;6183198;23;20032;-82
2022/11/05 06:05:22;;;;;;;35.90;14.53;;;;;;;2.48;100.00;101553.50;6183625;23;19997;-82
2022/11/05 06:07:54;;;;;;;31.03;14.37;;;;;;;2.38;100.00;101537.09;6183625;23;20029;-82
2022/11/05 06:10:20;;;;;;;35.85;14.88;;;;;;;2.56;100.00;101556.03;6182890;23;20059;-83
2022/11/05 06:12:45;;;;;;;34.50;15.03;;;;;;;2.53;100.00;101547.66;6183300;23;19997;-84
2022/11/05 06:15:10;;;;;;;36.20;15.87;;;;;;;2.58;100.00;101547.91;6183273;23;20013;-83
2022/11/05 06:17:36;;;;;;;36.40;15.10;;;;;;;2.55;100.00;101548.28;6183417;23;20051;-83
2022/11/05 06:20:02;;;;;;;36.73;14.77;;;;;;;2.66;100.00;101561.03;6182681;23;20005;-83
2022/11/05 06:22:27;;;;;;;43.17;16.35;;;;;;;2.56;100.00;101540.16;6183451;23;20059;-83
2022/11/05 06:24:53;;;;;;;34.17;15.07;;;;;;;2.63;100.00;101544.69;6183377;23;20016;-83
2022/11/05 06:27:18;;;;;;;34.07;15.47;;;;;;;2.58;100.00;101550.56;6183511;23;20322;-83
2022/11/05 06:29:43;;;;;;;31.33;14.33;;;;;;;2.58;100.00;101558.50;6182791;23;20135;-83
2022/11/05 06:32:08;;;;;;;32.67;14.83;;;;;;;2.64;100.00;101562.22;6182970;23;20012;-83
2022/11/05 06:34:35;;;;;;;34.97;15.00;;;;;;;2.59;100.00;101552.22;6183228;23;20028;-83
2022/11/05 06:37:01;;;;;;;34.20;15.43;;;;;;;2.71;100.00;101574.53;6182944;23;20329;-83
2022/11/05 06:39:26;;;;;;;34.90;14.53;;;;;;;2.68;100.00;101563.50;6183052;23;20032;-83
2022/11/05 06:41:51;;;;;;;34.47;14.70;;;;;;;2.69;100.00;101571.22;6180606;23;20016;-83
2022/11/05 06:44:16;;;;;;;28.90;14.73;;;;;;;2.61;100.00;101565.22;6182720;23;20029;-83
2022/11/05 06:46:42;;;;;;;32.63;14.90;;;;;;;2.73;100.00;101579.66;6183191;23;20009;-83
2022/11/05 06:49:07;;;;;;;31.23;14.87;;;;;;;2.69;100.00;101565.94;6183120;23;20444;-83
2022/11/05 06:51:32;;;;;;;37.73;15.03;;;;;;;2.60;100.00;101569.72;6182414;23;20094;-83
2022/11/05 06:54:00;;;;;;;34.37;15.50;;;;;;;2.65;100.00;101569.16;6183134;23;20005;-83
2022/11/05 06:56:25;;;;;;;35.75;15.50;;;;;;;2.70;100.00;101577.38;6182980;23;20008;-83
2022/11/05 06:58:51;;;;;;;33.77;15.13;;;;;;;2.50;100.00;101546.19;6156112;23;20005;-83
2022/11/05 07:01:21;;;;;;;29.33;14.57;;;;;;;2.63;100.00;101569.34;6182130;23;20378;-83
2022/11/05 07:03:48;;;;;;;33.33;14.73;;;;;;;2.63;100.00;101577.28;6182626;23;20013;-83
2022/11/05 07:06:13;;;;;;;31.63;14.43;;;;;;;2.66;100.00;101584.03;6182865;23;20047;-83
2022/11/05 07:08:39;;;;;;;32.50;14.60;;;;;;;2.54;100.00;101573.09;6182997;23;20005;-84
2022/11/05 07:11:04;;;;;;;30.77;14.00;;;;;;;2.58;100.00;101577.84;6155807;23;20005;-83
2022/11/05 07:13:30;;;;;;;28.88;13.43;;;;;;;2.51;100.00;101574.31;6183129;23;20032;-83
2022/11/05 07:15:57;;;;;;;36.87;14.83;;;;;;;2.69;100.00;101594.25;6182819;23;20041;-83
2022/11/05 07:18:22;;;;;;;38.40;13.90;;;;;;;2.70;100.00;101585.31;6182618;23;20020;-83
2022/11/05 07:20:48;;;;;;;30.10;13.82;;;;;;;2.77;100.00;101599.41;6182457;23;20013;-83
2022/11/05 07:23:14;;;;;;;38.60;15.20;;;;;;;2.81;100.00;101600.69;6183479;23;20043;-83
2022/11/05 07:25:40;;;;;;;36.35;14.95;;;;;;;2.81;100.00;101590.09;6155912;23;20009;-83
2022/11/05 07:28:06;;;;;;;40.28;14.15;;;;;;;2.90;100.00;101595.28;6182788;23;21316;-83
2022/11/05 07:30:32;;;;;;;44.03;15.55;;;;;;;2.97;100.00;101604.09;6182299;23;20436;-84
2022/11/05 07:32:58;;;;;;;35.77;14.47;;;;;;;3.03;100.00;101609.47;6182570;23;20005;-83
2022/11/05 07:35:24;;;;;;;35.53;14.80;;;;;;;3.04;100.00;101605.00;6182707;23;20260;-83
2022/11/05 07:37:52;;;;;;;35.88;14.70;;;;;;;3.08;100.00;101600.97;6182779;23;20021;-84
2022/11/05 07:40:18;;;;;;;35.60;15.30;;;;;;;3.13;100.00;101603.88;6182005;23;20008;-83
2022/11/05 07:42:47;;;;;;;41.45;15.48;;;;;;;3.24;100.00;101610.50;6182822;23;20009;-85
2022/11/05 07:45:12;;;;;;;33.57;14.97;;;;;;;3.13;100.00;101593.28;6182707;23;20107;-84
2022/11/05 07:47:43;;;;;;;33.73;15.03;;;;;;;3.29;100.00;101613.41;6182523;23;20233;-85
2022/11/05 07:50:09;;;;;;;35.75;15.15;;;;;;;3.43;100.00;101627.59;6182382;23;20012;-84
2022/11/05 07:52:36;;;;;;;41.25;15.48;;;;;;;3.49;100.00;101624.16;6182455;23;20008;-83
2022/11/05 07:55:01;;;;;;;42.53;15.93;;;;;;;3.57;100.00;101622.41;6182433;23;20424;-84
2022/11/05 07:57:26;;;;;;;43.03;16.60;;;;;;;3.52;100.00;101611.53;6182831;23;20290;-84
2022/11/05 07:59:52;;;;;;;40.07;16.57;;;;;;;3.59;100.00;101620.38;6182159;23;20012;-84
2022/11/05 08:02:17;;;;;;;40.00;16.60;;;;;;;3.58;100.00;101616.91;6182700;23;20071;-85
2022/11/05 08:04:43;;;;;;;49.70;17.73;;;;;;;3.73;100.00;101630.06;6184643;23;20452;-83
2022/11/05 08:07:09;;;;;;;51.13;17.08;;;;;;;3.78;100.00;101630.31;6184391;23;20001;-85
2022/11/05 08:09:34;;;;;;;44.60;17.87;;;;;;;3.77;100.00;101609.28;6184851;23;20080;-84
2022/11/05 08:11:59;;;;;;;48.20;16.53;;;;;;;3.81;100.00;101607.91;6184688;23;20012;-84
2022/11/05 08:14:26;;;;;;;50.30;17.33;;;;;;;3.88;100.00;101631.81;6185313;23;20441;-85
2022/11/05 08:16:51;;;;;;;59.80;18.67;;;;;;;3.97;100.00;101608.59;6185717;23;20008;-84
2022/11/05 08:19:17;;;;;;;45.90;17.97;;;;;;;4.07;100.00;101622.38;6185115;23;20061;-84
2022/11/05 08:21:42;;;;;;;45.20;17.70;;;;;;;4.19;100.00;101625.28;6183915;23;20021;-85
2022/11/05 08:24:08;;;;;;;55.17;18.85;;;;;;;4.20;100.00;101618.97;6184830;23;20005;-85
2022/11/05 08:26:33;;;;;;;50.97;19.60;;;;;;;4.32;100.00;101630.66;6184631;23;20008;-82
2022/11/05 08:28:59;;;;;;;54.30;19.13;;;;;;;4.26;100.00;101612.06;6187056;23;20005;-81
2022/11/05 08:31:25;;;;;;;51.50;18.88;;;;;;;4.36;100.00;101612.50;6189518;23;20009;-83
2022/11/05 08:33:50;;;;;;;48.88;19.85;;;;;;;4.24;100.00;101593.66;6158794;23;20009;-84
2022/11/05 08:36:33;;;;;;;56.53;19.13;;;;;;;4.29;100.00;101609.81;6202488;23;20001;-83
2022/11/05 08:48:18;;;;;;;50.53;19.33;;;;;;;4.64;100.00;101631.00;6184596;23;20020;-84
2022/11/05 08:50:45;;;;;;;52.07;18.40;;;;;;;4.76;100.00;101625.94;6183874;23;20008;-84
2022/11/05 08:53:11;;;;;;;54.30;20.13;;;;;;;4.82;100.00;101634.94;6185469;23;20734;-84
2022/11/05 08:55:37;;;;;;;46.63;18.92;;;;;;;4.79;100.00;101608.78;6184843;23;20009;-84
2022/11/05 08:58:14;;;;;;;54.05;19.55;;;;;;;4.90;100.00;101618.84;6158777;23;20058;-84
2022/11/05 09:00:40;;;;;;;44.30;18.60;;;;;;;5.04;100.00;101632.16;6183959;23;20425;-84
2022/11/05 09:03:07;;;;;;;48.58;18.90;;;;;;;5.03;100.00;101625.22;6184928;23;20005;-83
2022/11/05 09:05:38;;;;;;;44.40;18.38;;;;;;;5.05;100.00;101631.16;6201050;22;20091;-84
2022/11/05 09:08:08;;;;;;;43.13;16.83;;;;;;;5.12;100.00;101635.44;6157845;23;20342;-84
2022/11/05 09:10:33;;;;;;;39.00;16.47;;;;;;;5.11;100.00;101620.53;6184098;23;20327;-84
2022/11/05 09:12:59;;;;;;;44.65;18.20;;;;;;;5.20;100.00;101634.44;6184967;23;20037;-84
2022/11/05 09:15:25;;;;;;;40.63;16.33;;;;;;;5.22;100.00;101629.75;6185565;23;20047;-84
2022/11/05 09:17:51;;;;;;;36.47;16.08;;;;;;;5.31;100.00;101641.81;6185849;23;20025;-84
2022/11/05 09:20:17;;;;;;;40.55;15.02;;;;;;;5.41;100.00;101643.25;6184195;23;20005;-85
2022/11/05 09:22:45;;;;;;;38.22;16.08;;;;;;;5.45;100.00;101633.88;6184984;23;20491;-84
2022/11/05 09:25:10;;;;;;;32.50;15.13;;;;;;;5.51;100.00;101641.00;6183899;23;20448;-84
2022/11/05 09:27:36;;;;;;;37.50;15.67;;;;;;;5.57;100.00;101632.22;6184114;23;20073;-84
2022/11/05 09:30:01;;;;;;;35.20;15.37;;;;;;;5.52;100.00;101615.25;6183199;23;20005;-84
2022/11/05 09:32:27;;;;;;;39.28;15.15;;;;;;;5.70;100.00;101638.56;6184003;23;20001;-84
2022/11/05 09:34:52;;;;;;;31.23;14.80;;;;;;;5.68;100.00;101625.47;6184256;23;20001;-84
2022/11/05 09:37:17;;;;;;;33.63;14.13;;;;;;;5.71;100.00;101625.06;6183715;23;19997;-85
2022/11/05 09:39:42;;;;;;;34.43;15.00;;;;;;;5.81;100.00;101635.31;6183403;23;20001;-84
2022/11/05 09:42:11;;;;;;;29.07;13.53;;;;;;;5.91;100.00;101649.00;6183392;23;20013;-84
2022/11/05 09:44:49;;;;;;;33.15;14.20;;;;;;;5.94;100.00;101641.63;6184132;23;20016;-84
2022/11/05 09:47:21;;;;;;;27.80;13.55;;;;;;;6.01;100.00;101645.13;6183726;23;20376;-84
2022/11/05 09:49:50;;;;;;;29.17;14.13;;;;;;;5.98;100.00;101642.84;6183423;23;20012;-86
2022/11/05 09:52:22;;;;;;;33.45;14.52;;;;;;;6.08;100.00;101648.59;6184011;23;20015;-85
2022/11/05 09:54:49;;;;;;;33.72;13.25;;;;;;;6.15;100.00;101644.09;6184165;23;20001;-86
2022/11/05 09:57:36;;;;;;;35.10;14.70;;;;;;;6.37;100.00;101659.81;6184219;23;20001;-85
2022/11/05 10:00:05;;;;;;;30.93;15.17;;;;;;;6.48;100.00;101655.69;6183537;23;20241;-84
2022/11/05 10:02:34;;;;;;;27.58;13.80;;;;;;;6.68;100.00;101668.91;6157888;23;20005;-85
2022/11/05 10:05:05;;;;;;;28.52;13.98;;;;;;;6.82;100.00;101659.81;6170565;23;20447;-85
2022/11/05 10:07:50;;;;;;;26.58;13.35;;;;;;;6.92;100.00;101656.72;6170987;23;20013;-84
2022/11/05 10:10:27;;;;;;;26.55;12.95;;;;;;;7.06;100.00;101662.78;6192532;23;20016;-84
2022/11/05 10:12:57;;;;;;;24.65;12.93;;;;;;;7.02;100.00;101650.91;6191101;23;20059;-84
2022/11/05 10:15:31;;;;;;;22.15;11.98;;;;;;;7.15;100.00;101663.34;6184677;23;20250;-84
2022/11/05 10:18:12;;;;;;;25.45;11.45;;;;;;;7.31;100.00;101674.53;6184170;23;20011;-84
2022/11/05 10:20:38;;;;;;;20.10;10.63;;;;;;;7.34;100.00;101666.91;6183346;23;20001;-85
2022/11/05 10:23:20;;;;;;;18.13;10.13;;;;;;;7.42;100.00;101677.34;6157775;23;20445;-85
2022/11/05 10:25:50;;;;;;;22.73;10.20;;;;;;;7.57;100.00;101689.53;6183347;23;20236;-85
2022/11/05 10:28:26;;;;;;;17.38;9.38;;;;;;;7.70;100.00;101697.44;6184643;23;20008;-84
2022/11/05 10:30:57;;;;;;;17.95;9.45;;;;;;;7.84;100.00;101697.34;6186009;23;20007;-85
2022/11/05 10:33:48;;;;;;;17.27;9.60;;;;;;;7.99;100.00;101697.84;6185752;23;20379;-84
2022/11/05 10:36:22;;;;;;;17.90;9.77;;;;;;;8.13;100.00;101697.72;6184053;23;20001;-84
2022/11/05 10:38:50;;;;;;;17.38;9.20;;;;;;;8.14;100.00;101694.81;6184317;23;20001;-85
2022/11/05 10:41:51;;;;;;;15.63;8.40;;;;;;;8.26;100.00;101700.25;6183049;23;20020;-84
2022/11/05 10:44:46;;;;;;;15.67;8.63;;;;;;;8.34;100.00;101704.47;6183678;23;20452;-85
2022/11/05 10:47:48;;;;;;;21.40;8.67;;;;;;;8.47;100.00;101699.03;6184133;23;20245;-85
2022/11/05 10:50:18;;;;;;;16.30;8.00;;;;;;;8.47;100.00;101699.03;6183344;23;20005;-85
2022/11/05 10:53:01;;;;;;;13.27;7.90;;;;;;;8.48;100.00;101700.69;6184732;23;20001;-85
2022/11/05 10:55:31;;;;;;;15.48;7.97;;;;;;;8.48;100.00;101697.19;6184121;23;20005;-84
2022/11/05 10:58:06;;;;;;;18.10;8.48;;;;;;;8.55;100.00;101694.44;6184261;23;20084;-84
2022/11/05 11:00:32;;;;;;;14.15;7.38;;;;;;;8.62;100.00;101690.66;6183051;23;20009;-85
2022/11/05 11:03:00;;;;;;;16.63;7.30;;;;;;;8.59;100.00;101680.41;6184179;23;20012;-85
2022/11/05 11:05:32;;;;;;;12.57;6.97;;;;;;;8.72;100.00;101695.47;6184355;23;20369;-85
2022/11/05 11:08:09;;;;;;;13.80;7.07;;;;;;;8.78;100.00;101699.94;6184132;23;20456;-85
2022/11/05 11:10:40;;;;;;;15.95;6.78;;;;;;;8.85;100.00;101705.19;6183570;23;20044;-84
2022/11/05 11:13:16;;;;;;;16.02;7.47;;;;;;;8.80;100.00;101680.97;6184269;23;20005;-85
2022/11/05 11:15:41;;;;;;;13.82;7.57;;;;;;;8.93;100.00;101696.03;6184454;23;20001;-86
2022/11/05 11:18:43;;;;;;;14.90;6.53;;;;;;;9.03;100.00;101690.16;6183538;23;20009;-85
2022/11/05 11:21:14;;;;;;;13.50;7.22;;;;;;;9.13;100.00;101685.06;6160249;23;20330;-85
2022/11/05 11:23:42;;;;;;;13.15;6.35;;;;;;;9.22;100.00;101691.75;6182984;23;20008;-85
2022/11/05 11:26:10;;;;;;;13.30;7.00;;;;;;;9.38;100.00;101690.28;6183517;23;20423;-84
2022/11/05 11:28:41;;;;;;;13.83;7.30;;;;;;;9.45;100.00;101684.84;6156509;23;20535;-85
2022/11/05 11:31:10;;;;;;;13.32;6.90;;;;;;;9.48;100.00;101684.38;6182845;23;20012;-84
2022/11/05 11:33:37;;;;;;;14.35;6.40;;;;;;;9.47;100.00;101680.09;6183471;23;20011;-85
2022/11/05 11:36:04;;;;;;;14.93;6.88;;;;;;;9.47;100.00;101677.41;6183415;23;20009;-85
2022/11/05 11:38:32;;;;;;;13.13;6.00;;;;;;;9.46;100.00;101678.44;6183122;23;20028;-85
2022/11/05 11:41:15;;;;;;;10.80;5.88;;;;;;;9.37;100.00;101672.63;6182646;23;20032;-85
2022/11/05 11:43:42;;;;;;;15.85;6.13;;;;;;;9.37;100.00;101674.47;6182859;23;20345;-85
2022/11/05 11:46:18;;;;;;;10.00;5.57;;;;;;;9.30;100.00;101674.56;6182927;23;20072;-85
2022/11/05 11:48:49;;;;;;;15.17;5.53;;;;;;;9.44;100.00;101683.22;6182855;23;20061;-85
2022/11/05 11:51:40;;;;;;;12.00;6.00;;;;;;;9.54;100.00;101672.75;6182695;23;20256;-85
2022/11/05 11:54:18;;;;;;;12.57;5.53;;;;;;;9.85;100.00;101688.75;6181535;23;20009;-85
2022/11/05 11:56:45;;;;;;;9.23;5.53;;;;;;;10.11;100.00;101681.31;6183491;23;20047;-85
2022/11/05 11:59:21;;;;;;;10.65;5.75;;;;;;;10.33;100.00;101676.16;6182934;23;20016;-85
2022/11/05 12:02:31;;;;;;;12.32;5.10;;;;;;;10.50;100.00;101678.13;6182601;23;20028;-84
2022/11/05 12:05:15;;;;;;;8.80;4.50;;;;;;;10.56;100.00;101674.53;6182651;23;20023;-85
2022/11/05 12:08:00;;;;;;;7.82;4.35;;;;;;;10.60;100.00;101664.94;6182649;23;20429;-84
2022/11/05 12:10:27;;;;;;;12.93;4.65;;;;;;;10.84;100.00;101665.69;6182808;23;20009;-85
2022/11/05 12:13:17;;;;;;;11.05;4.50;;;;;;;11.08;100.00;101670.13;6183191;23;20005;-84
2022/11/05 12:15:52;;;;;;;9.30;3.93;;;;;;;11.14;98.92;101674.53;6183238;23;20005;-85
2022/11/05 12:18:46;;;;;;;9.60;4.00;;;;;;;11.08;98.98;101656.72;6182939;23;20241;-84
2022/11/05 12:21:31;;;;;;;7.30;3.63;;;;;;;11.15;97.38;101681.50;6182035;23;20088;-83
2022/11/05 12:24:07;;;;;;;11.02;3.95;;;;;;;11.06;97.84;101681.91;6183854;23;20001;-84